sensor_id;sensor_type;location;lat;lon;timestamp;temperature;humidity
47338;DHT22;33069;51.970;5.892;2023-07-31T00:00:02;15.00;91.20
47338;DHT22;33069;51.970;5.892;2023-07-31T00:02:48;15.20;91.20
47338;DHT22;33069;51.970;5.892;2023-07-31T00:05:34;15.20;91.20
47338;DHT22;33069;51.970;5.892;2023-07-31T00:08:20;15.20;91.30
47338;DHT22;33069;51.970;5.892;2023-07-31T00:11:06;15.10;91.20
47338;DHT22;33069;51.970;5.892;2023-07-31T00:13:53;15.20;91.20
47338;DHT22;33069;51.970;5.892;2023-07-31T00:16:39;15.30;91.30
47338;DHT22;33069;51.970;5.892;2023-07-31T00:19:25;15.30;91.20
47338;DHT22;33069;51.970;5.892;2023-07-31T00:22:11;15.30;91.30
47338;DHT22;33069;51.970;5.892;2023-07-31T00:24:57;15.30;91.20
47338;DHT22;33069;51.970;5.892;2023-07-31T00:27:44;15.30;91.30
47338;DHT22;33069;51.970;5.892;2023-07-31T00:30:30;15.40;91.30
47338;DHT22;33069;51.970;5.892;2023-07-31T00:33:16;15.50;91.20
47338;DHT22;33069;51.970;5.892;2023-07-31T00:36:02;15.50;91.20
47338;DHT22;33069;51.970;5.892;2023-07-31T00:38:48;15.40;91.20
47338;DHT22;33069;51.970;5.892;2023-07-31T00:41:34;15.40;91.20
47338;DHT22;33069;51.970;5.892;2023-07-31T00:44:20;15.40;91.20
47338;DHT22;33069;51.970;5.892;2023-07-31T00:47:06;15.40;91.20
47338;DHT22;33069;51.970;5.892;2023-07-31T00:49:52;15.50;91.30
47338;DHT22;33069;51.970;5.892;2023-07-31T00:52:38;15.50;91.40
47338;DHT22;33069;51.970;5.892;2023-07-31T00:55:24;15.60;91.40
47338;DHT22;33069;51.970;5.892;2023-07-31T00:58:10;15.70;91.50
47338;DHT22;33069;51.970;5.892;2023-07-31T01:00:56;15.70;91.50
47338;DHT22;33069;51.970;5.892;2023-07-31T01:03:42;15.80;91.60
47338;DHT22;33069;51.970;5.892;2023-07-31T01:06:37;15.80;91.60
47338;DHT22;33069;51.970;5.892;2023-07-31T01:12:56;16.00;91.70
47338;DHT22;33069;51.970;5.892;2023-07-31T01:15:43;16.10;91.70
47338;DHT22;33069;51.970;5.892;2023-07-31T01:18:29;16.10;91.70
47338;DHT22;33069;51.970;5.892;2023-07-31T01:24:36;16.20;91.70
47338;DHT22;33069;51.970;5.892;2023-07-31T01:27:32;16.20;91.60
47338;DHT22;33069;51.970;5.892;2023-07-31T01:30:25;16.20;91.60
47338;DHT22;33069;51.970;5.892;2023-07-31T01:33:12;16.20;91.50
47338;DHT22;33069;51.970;5.892;2023-07-31T01:35:59;16.20;91.40
47338;DHT22;33069;51.970;5.892;2023-07-31T01:38:45;16.20;91.30
47338;DHT22;33069;51.970;5.892;2023-07-31T01:41:31;16.20;91.20
47338;DHT22;33069;51.970;5.892;2023-07-31T01:44:17;16.20;91.20
47338;DHT22;33069;51.970;5.892;2023-07-31T01:47:03;16.20;91.10
47338;DHT22;33069;51.970;5.892;2023-07-31T01:49:49;16.20;90.90
47338;DHT22;33069;51.970;5.892;2023-07-31T01:52:35;16.20;90.80
47338;DHT22;33069;51.970;5.892;2023-07-31T01:55:21;16.20;90.70
47338;DHT22;33069;51.970;5.892;2023-07-31T01:58:07;16.20;90.60
47338;DHT22;33069;51.970;5.892;2023-07-31T02:00:53;16.20;90.50
47338;DHT22;33069;51.970;5.892;2023-07-31T02:03:39;16.30;90.40
47338;DHT22;33069;51.970;5.892;2023-07-31T02:06:25;16.20;90.30
47338;DHT22;33069;51.970;5.892;2023-07-31T02:09:11;16.20;90.10
47338;DHT22;33069;51.970;5.892;2023-07-31T02:11:57;16.20;89.90
47338;DHT22;33069;51.970;5.892;2023-07-31T02:14:43;16.30;89.90
47338;DHT22;33069;51.970;5.892;2023-07-31T02:17:29;16.30;89.80
47338;DHT22;33069;51.970;5.892;2023-07-31T02:20:15;16.30;89.80
47338;DHT22;33069;51.970;5.892;2023-07-31T02:23:01;16.20;89.90
47338;DHT22;33069;51.970;5.892;2023-07-31T02:25:48;16.10;90.00
47338;DHT22;33069;51.970;5.892;2023-07-31T02:28:34;16.10;90.20
47338;DHT22;33069;51.970;5.892;2023-07-31T02:31:20;16.10;90.30
47338;DHT22;33069;51.970;5.892;2023-07-31T02:34:06;16.00;90.50
47338;DHT22;33069;51.970;5.892;2023-07-31T02:36:51;16.00;90.60
47338;DHT22;33069;51.970;5.892;2023-07-31T02:39:37;16.00;90.80
47338;DHT22;33069;51.970;5.892;2023-07-31T02:42:24;16.00;90.80
47338;DHT22;33069;51.970;5.892;2023-07-31T02:45:10;16.00;90.80
47338;DHT22;33069;51.970;5.892;2023-07-31T02:47:56;16.10;90.80
47338;DHT22;33069;51.970;5.892;2023-07-31T02:50:42;16.00;90.80
47338;DHT22;33069;51.970;5.892;2023-07-31T02:53:28;16.00;90.70
47338;DHT22;33069;51.970;5.892;2023-07-31T02:56:14;16.00;90.60
47338;DHT22;33069;51.970;5.892;2023-07-31T02:59:00;16.10;90.50
47338;DHT22;33069;51.970;5.892;2023-07-31T03:01:46;16.10;90.40
47338;DHT22;33069;51.970;5.892;2023-07-31T03:04:32;16.10;90.30
47338;DHT22;33069;51.970;5.892;2023-07-31T03:07:18;16.10;90.10
47338;DHT22;33069;51.970;5.892;2023-07-31T03:10:04;16.10;90.10
47338;DHT22;33069;51.970;5.892;2023-07-31T03:12:51;16.10;90.00
47338;DHT22;33069;51.970;5.892;2023-07-31T03:15:37;16.10;89.90
47338;DHT22;33069;51.970;5.892;2023-07-31T03:18:22;16.10;89.70
47338;DHT22;33069;51.970;5.892;2023-07-31T03:21:08;16.10;89.50
47338;DHT22;33069;51.970;5.892;2023-07-31T03:23:54;16.20;89.30
47338;DHT22;33069;51.970;5.892;2023-07-31T03:26:40;16.20;89.10
47338;DHT22;33069;51.970;5.892;2023-07-31T03:29:27;16.20;88.80
47338;DHT22;33069;51.970;5.892;2023-07-31T03:32:13;16.20;88.70
47338;DHT22;33069;51.970;5.892;2023-07-31T03:35:14;16.20;88.60
47338;DHT22;33069;51.970;5.892;2023-07-31T03:38:28;16.10;88.20
47338;DHT22;33069;51.970;5.892;2023-07-31T03:44:56;16.20;87.80
47338;DHT22;33069;51.970;5.892;2023-07-31T03:47:42;16.20;87.40
47338;DHT22;33069;51.970;5.892;2023-07-31T03:50:28;16.20;87.30
47338;DHT22;33069;51.970;5.892;2023-07-31T03:53:14;16.20;87.10
47338;DHT22;33069;51.970;5.892;2023-07-31T03:56:00;16.20;87.00
47338;DHT22;33069;51.970;5.892;2023-07-31T03:58:46;16.20;86.70
47338;DHT22;33069;51.970;5.892;2023-07-31T04:01:32;16.20;86.50
47338;DHT22;33069;51.970;5.892;2023-07-31T04:04:18;16.20;86.50
47338;DHT22;33069;51.970;5.892;2023-07-31T04:07:04;16.20;85.90
47338;DHT22;33069;51.970;5.892;2023-07-31T04:09:50;16.30;86.00
47338;DHT22;33069;51.970;5.892;2023-07-31T04:12:36;16.20;85.90
47338;DHT22;33069;51.970;5.892;2023-07-31T04:15:22;16.20;85.80
47338;DHT22;33069;51.970;5.892;2023-07-31T04:18:08;16.20;85.90
47338;DHT22;33069;51.970;5.892;2023-07-31T04:20:53;16.30;86.00
47338;DHT22;33069;51.970;5.892;2023-07-31T04:23:40;16.30;85.80
47338;DHT22;33069;51.970;5.892;2023-07-31T04:26:26;16.20;85.80
47338;DHT22;33069;51.970;5.892;2023-07-31T04:29:12;16.30;85.50
47338;DHT22;33069;51.970;5.892;2023-07-31T04:31:58;16.30;85.40
47338;DHT22;33069;51.970;5.892;2023-07-31T04:34:44;16.30;85.30
47338;DHT22;33069;51.970;5.892;2023-07-31T04:37:30;16.30;85.30
47338;DHT22;33069;51.970;5.892;2023-07-31T04:40:16;16.30;85.40
47338;DHT22;33069;51.970;5.892;2023-07-31T04:43:02;16.40;85.40
47338;DHT22;33069;51.970;5.892;2023-07-31T04:45:48;16.40;85.30
47338;DHT22;33069;51.970;5.892;2023-07-31T04:48:35;16.40;85.30
47338;DHT22;33069;51.970;5.892;2023-07-31T04:51:21;16.40;85.30
47338;DHT22;33069;51.970;5.892;2023-07-31T04:54:08;16.40;85.30
47338;DHT22;33069;51.970;5.892;2023-07-31T04:56:54;16.40;85.20
47338;DHT22;33069;51.970;5.892;2023-07-31T04:59:40;16.40;85.10
47338;DHT22;33069;51.970;5.892;2023-07-31T05:02:26;16.30;85.20
47338;DHT22;33069;51.970;5.892;2023-07-31T05:05:12;16.30;85.10
47338;DHT22;33069;51.970;5.892;2023-07-31T05:07:58;16.30;85.20
47338;DHT22;33069;51.970;5.892;2023-07-31T05:10:44;16.30;85.40
47338;DHT22;33069;51.970;5.892;2023-07-31T05:13:30;16.30;85.40
47338;DHT22;33069;51.970;5.892;2023-07-31T05:16:16;16.30;85.50
47338;DHT22;33069;51.970;5.892;2023-07-31T05:19:02;16.30;85.40
47338;DHT22;33069;51.970;5.892;2023-07-31T05:21:48;16.40;85.30
47338;DHT22;33069;51.970;5.892;2023-07-31T05:24:34;16.40;85.10
47338;DHT22;33069;51.970;5.892;2023-07-31T05:27:20;16.40;85.10
47338;DHT22;33069;51.970;5.892;2023-07-31T05:30:06;16.30;85.20
47338;DHT22;33069;51.970;5.892;2023-07-31T05:32:53;16.30;85.70
47338;DHT22;33069;51.970;5.892;2023-07-31T05:35:39;16.30;86.00
47338;DHT22;33069;51.970;5.892;2023-07-31T05:38:25;16.20;86.50
47338;DHT22;33069;51.970;5.892;2023-07-31T05:41:12;16.20;87.10
47338;DHT22;33069;51.970;5.892;2023-07-31T05:43:58;16.10;87.40
47338;DHT22;33069;51.970;5.892;2023-07-31T05:46:44;16.00;87.90
47338;DHT22;33069;51.970;5.892;2023-07-31T05:49:30;16.00;88.30
47338;DHT22;33069;51.970;5.892;2023-07-31T05:52:16;16.00;88.60
47338;DHT22;33069;51.970;5.892;2023-07-31T05:55:02;16.00;88.80
47338;DHT22;33069;51.970;5.892;2023-07-31T05:57:48;15.90;89.20
47338;DHT22;33069;51.970;5.892;2023-07-31T06:00:34;15.90;89.50
47338;DHT22;33069;51.970;5.892;2023-07-31T06:03:20;15.80;89.70
47338;DHT22;33069;51.970;5.892;2023-07-31T06:06:06;15.90;90.00
47338;DHT22;33069;51.970;5.892;2023-07-31T06:08:52;16.00;90.10
47338;DHT22;33069;51.970;5.892;2023-07-31T06:11:38;15.90;90.30
47338;DHT22;33069;51.970;5.892;2023-07-31T06:14:24;16.00;90.50
47338;DHT22;33069;51.970;5.892;2023-07-31T06:17:10;16.00;90.60
47338;DHT22;33069;51.970;5.892;2023-07-31T06:19:56;16.00;90.70
47338;DHT22;33069;51.970;5.892;2023-07-31T06:22:42;16.10;90.80
47338;DHT22;33069;51.970;5.892;2023-07-31T06:25:28;16.10;90.90
47338;DHT22;33069;51.970;5.892;2023-07-31T06:28:14;16.10;90.90
47338;DHT22;33069;51.970;5.892;2023-07-31T06:31:01;16.10;91.00
47338;DHT22;33069;51.970;5.892;2023-07-31T06:33:47;16.10;91.00
47338;DHT22;33069;51.970;5.892;2023-07-31T06:36:33;16.10;91.10
47338;DHT22;33069;51.970;5.892;2023-07-31T06:39:18;16.10;91.10
47338;DHT22;33069;51.970;5.892;2023-07-31T06:42:05;16.20;91.20
47338;DHT22;33069;51.970;5.892;2023-07-31T06:44:51;16.20;91.30
47338;DHT22;33069;51.970;5.892;2023-07-31T06:47:37;16.20;91.40
47338;DHT22;33069;51.970;5.892;2023-07-31T06:50:22;16.30;91.40
47338;DHT22;33069;51.970;5.892;2023-07-31T06:53:08;16.30;91.40
47338;DHT22;33069;51.970;5.892;2023-07-31T06:55:55;16.30;91.40
47338;DHT22;33069;51.970;5.892;2023-07-31T06:58:40;16.30;91.40
47338;DHT22;33069;51.970;5.892;2023-07-31T07:01:26;16.30;91.40
47338;DHT22;33069;51.970;5.892;2023-07-31T07:04:14;16.30;91.40
47338;DHT22;33069;51.970;5.892;2023-07-31T07:07:00;16.30;91.50
47338;DHT22;33069;51.970;5.892;2023-07-31T07:09:46;16.30;91.40
47338;DHT22;33069;51.970;5.892;2023-07-31T07:12:33;16.30;91.40
47338;DHT22;33069;51.970;5.892;2023-07-31T07:15:19;16.30;91.50
47338;DHT22;33069;51.970;5.892;2023-07-31T07:18:05;16.40;91.50
47338;DHT22;33069;51.970;5.892;2023-07-31T07:20:52;16.40;91.50
47338;DHT22;33069;51.970;5.892;2023-07-31T07:23:38;16.50;91.50
47338;DHT22;33069;51.970;5.892;2023-07-31T07:26:24;16.50;91.50
47338;DHT22;33069;51.970;5.892;2023-07-31T07:29:10;16.50;91.50
47338;DHT22;33069;51.970;5.892;2023-07-31T07:31:56;16.70;91.50
47338;DHT22;33069;51.970;5.892;2023-07-31T07:34:42;16.60;91.50
47338;DHT22;33069;51.970;5.892;2023-07-31T07:37:28;16.50;91.50
47338;DHT22;33069;51.970;5.892;2023-07-31T07:40:15;16.60;91.40
47338;DHT22;33069;51.970;5.892;2023-07-31T07:43:01;16.60;91.50
47338;DHT22;33069;51.970;5.892;2023-07-31T07:45:47;16.60;91.50
47338;DHT22;33069;51.970;5.892;2023-07-31T07:48:33;16.50;91.50
47338;DHT22;33069;51.970;5.892;2023-07-31T07:51:19;16.50;91.40
47338;DHT22;33069;51.970;5.892;2023-07-31T07:54:05;16.60;91.40
47338;DHT22;33069;51.970;5.892;2023-07-31T07:56:51;16.60;91.40
47338;DHT22;33069;51.970;5.892;2023-07-31T07:59:37;16.60;91.40
47338;DHT22;33069;51.970;5.892;2023-07-31T08:02:23;16.60;91.40
47338;DHT22;33069;51.970;5.892;2023-07-31T08:05:09;16.70;91.40
47338;DHT22;33069;51.970;5.892;2023-07-31T08:07:55;16.70;91.40
47338;DHT22;33069;51.970;5.892;2023-07-31T08:10:42;16.70;91.40
47338;DHT22;33069;51.970;5.892;2023-07-31T08:13:28;16.70;91.40
47338;DHT22;33069;51.970;5.892;2023-07-31T08:16:14;16.70;91.40
47338;DHT22;33069;51.970;5.892;2023-07-31T08:19:00;16.80;91.30
47338;DHT22;33069;51.970;5.892;2023-07-31T08:21:46;16.80;91.30
47338;DHT22;33069;51.970;5.892;2023-07-31T08:24:32;16.80;91.30
47338;DHT22;33069;51.970;5.892;2023-07-31T08:27:18;16.90;91.30
47338;DHT22;33069;51.970;5.892;2023-07-31T08:30:05;16.90;91.30
47338;DHT22;33069;51.970;5.892;2023-07-31T08:32:51;16.90;91.20
47338;DHT22;33069;51.970;5.892;2023-07-31T08:35:37;16.90;91.30
47338;DHT22;33069;51.970;5.892;2023-07-31T08:38:23;16.80;91.20
47338;DHT22;33069;51.970;5.892;2023-07-31T08:41:11;16.90;91.20
47338;DHT22;33069;51.970;5.892;2023-07-31T08:43:59;16.90;91.30
47338;DHT22;33069;51.970;5.892;2023-07-31T08:46:47;17.00;91.30
47338;DHT22;33069;51.970;5.892;2023-07-31T08:49:34;17.10;91.40
47338;DHT22;33069;51.970;5.892;2023-07-31T08:52:20;17.20;91.40
47338;DHT22;33069;51.970;5.892;2023-07-31T08:55:07;17.00;91.30
47338;DHT22;33069;51.970;5.892;2023-07-31T08:57:54;17.10;91.30
47338;DHT22;33069;51.970;5.892;2023-07-31T09:00:42;17.10;91.30
47338;DHT22;33069;51.970;5.892;2023-07-31T09:03:33;17.10;91.30
47338;DHT22;33069;51.970;5.892;2023-07-31T09:06:20;17.10;91.30
47338;DHT22;33069;51.970;5.892;2023-07-31T09:09:09;17.20;91.30
47338;DHT22;33069;51.970;5.892;2023-07-31T09:11:55;17.10;91.30
47338;DHT22;33069;51.970;5.892;2023-07-31T09:14:46;17.10;91.30
47338;DHT22;33069;51.970;5.892;2023-07-31T09:17:34;17.00;91.30
47338;DHT22;33069;51.970;5.892;2023-07-31T09:20:21;17.00;91.30
47338;DHT22;33069;51.970;5.892;2023-07-31T09:23:08;16.90;91.20
47338;DHT22;33069;51.970;5.892;2023-07-31T09:25:54;17.00;91.30
47338;DHT22;33069;51.970;5.892;2023-07-31T09:28:41;17.00;91.30
47338;DHT22;33069;51.970;5.892;2023-07-31T09:31:53;17.10;91.30
47338;DHT22;33069;51.970;5.892;2023-07-31T09:34:40;17.20;91.30
47338;DHT22;33069;51.970;5.892;2023-07-31T09:37:26;17.20;91.30
47338;DHT22;33069;51.970;5.892;2023-07-31T09:40:28;17.10;91.10
47338;DHT22;33069;51.970;5.892;2023-07-31T09:43:21;17.20;91.20
47338;DHT22;33069;51.970;5.892;2023-07-31T09:46:13;17.20;91.10
47338;DHT22;33069;51.970;5.892;2023-07-31T09:49:10;17.10;91.00
47338;DHT22;33069;51.970;5.892;2023-07-31T09:51:56;17.20;91.00
47338;DHT22;33069;51.970;5.892;2023-07-31T09:54:42;17.30;90.90
47338;DHT22;33069;51.970;5.892;2023-07-31T09:57:28;17.20;90.60
47338;DHT22;33069;51.970;5.892;2023-07-31T10:00:16;17.30;90.50
47338;DHT22;33069;51.970;5.892;2023-07-31T10:03:07;17.40;90.50
47338;DHT22;33069;51.970;5.892;2023-07-31T10:05:56;17.50;90.40
47338;DHT22;33069;51.970;5.892;2023-07-31T10:08:44;17.60;90.00
47338;DHT22;33069;51.970;5.892;2023-07-31T10:12:22;17.60;89.70
47338;DHT22;33069;51.970;5.892;2023-07-31T10:14:43;17.70;89.50
47338;DHT22;33069;51.970;5.892;2023-07-31T10:17:31;17.70;89.30
47338;DHT22;33069;51.970;5.892;2023-07-31T10:20:17;17.70;89.10
47338;DHT22;33069;51.970;5.892;2023-07-31T10:23:03;17.70;88.80
47338;DHT22;33069;51.970;5.892;2023-07-31T10:25:50;17.80;88.90
47338;DHT22;33069;51.970;5.892;2023-07-31T10:28:37;17.90;88.60
47338;DHT22;33069;51.970;5.892;2023-07-31T10:31:24;18.00;88.20
47338;DHT22;33069;51.970;5.892;2023-07-31T10:34:11;18.10;88.00
47338;DHT22;33069;51.970;5.892;2023-07-31T10:37:23;18.10;87.60
47338;DHT22;33069;51.970;5.892;2023-07-31T10:40:16;18.10;87.50
47338;DHT22;33069;51.970;5.892;2023-07-31T10:43:02;18.10;87.30
47338;DHT22;33069;51.970;5.892;2023-07-31T10:45:49;18.10;87.10
47338;DHT22;33069;51.970;5.892;2023-07-31T10:48:35;18.20;87.00
47338;DHT22;33069;51.970;5.892;2023-07-31T10:51:22;18.20;86.90
47338;DHT22;33069;51.970;5.892;2023-07-31T10:54:16;18.30;86.60
47338;DHT22;33069;51.970;5.892;2023-07-31T10:57:21;18.40;86.70
47338;DHT22;33069;51.970;5.892;2023-07-31T11:03:18;18.60;85.80
47338;DHT22;33069;51.970;5.892;2023-07-31T11:06:06;18.60;85.70
47338;DHT22;33069;51.970;5.892;2023-07-31T11:08:52;18.60;85.90
47338;DHT22;33069;51.970;5.892;2023-07-31T11:11:38;18.50;85.60
47338;DHT22;33069;51.970;5.892;2023-07-31T11:14:24;18.50;85.80
47338;DHT22;33069;51.970;5.892;2023-07-31T11:17:10;18.60;86.00
47338;DHT22;33069;51.970;5.892;2023-07-31T11:19:56;18.50;86.10
47338;DHT22;33069;51.970;5.892;2023-07-31T11:22:43;18.40;86.60
47338;DHT22;33069;51.970;5.892;2023-07-31T11:25:30;18.30;87.10
47338;DHT22;33069;51.970;5.892;2023-07-31T11:28:18;18.20;87.60
47338;DHT22;33069;51.970;5.892;2023-07-31T11:31:04;18.10;87.90
47338;DHT22;33069;51.970;5.892;2023-07-31T11:33:50;18.10;88.20
47338;DHT22;33069;51.970;5.892;2023-07-31T11:36:36;18.20;88.40
47338;DHT22;33069;51.970;5.892;2023-07-31T11:39:22;18.20;88.40
47338;DHT22;33069;51.970;5.892;2023-07-31T11:42:08;18.30;88.00
47338;DHT22;33069;51.970;5.892;2023-07-31T11:44:54;18.30;87.60
47338;DHT22;33069;51.970;5.892;2023-07-31T11:47:40;18.50;87.20
47338;DHT22;33069;51.970;5.892;2023-07-31T11:50:26;18.50;87.00
47338;DHT22;33069;51.970;5.892;2023-07-31T11:53:13;18.60;86.70
47338;DHT22;33069;51.970;5.892;2023-07-31T11:56:00;18.70;86.50
47338;DHT22;33069;51.970;5.892;2023-07-31T11:58:49;18.60;86.40
47338;DHT22;33069;51.970;5.892;2023-07-31T12:01:35;18.70;86.60
47338;DHT22;33069;51.970;5.892;2023-07-31T12:04:22;18.70;86.50
47338;DHT22;33069;51.970;5.892;2023-07-31T12:07:09;18.70;86.10
47338;DHT22;33069;51.970;5.892;2023-07-31T12:09:55;18.60;86.00
47338;DHT22;33069;51.970;5.892;2023-07-31T12:12:41;18.70;85.90
47338;DHT22;33069;51.970;5.892;2023-07-31T12:15:47;18.80;85.40
47338;DHT22;33069;51.970;5.892;2023-07-31T12:18:35;18.80;85.20
47338;DHT22;33069;51.970;5.892;2023-07-31T12:21:21;18.80;84.70
47338;DHT22;33069;51.970;5.892;2023-07-31T12:24:07;19.00;84.60
47338;DHT22;33069;51.970;5.892;2023-07-31T12:26:53;19.00;84.60
47338;DHT22;33069;51.970;5.892;2023-07-31T12:29:43;19.10;84.80
47338;DHT22;33069;51.970;5.892;2023-07-31T12:32:30;18.90;85.20
47338;DHT22;33069;51.970;5.892;2023-07-31T12:35:16;18.80;85.80
47338;DHT22;33069;51.970;5.892;2023-07-31T12:38:02;18.80;86.10
47338;DHT22;33069;51.970;5.892;2023-07-31T12:40:48;18.60;86.50
47338;DHT22;33069;51.970;5.892;2023-07-31T12:43:38;18.50;87.20
47338;DHT22;33069;51.970;5.892;2023-07-31T12:46:24;18.50;87.80
47338;DHT22;33069;51.970;5.892;2023-07-31T12:49:10;18.40;88.00
47338;DHT22;33069;51.970;5.892;2023-07-31T12:51:56;18.40;88.30
47338;DHT22;33069;51.970;5.892;2023-07-31T12:54:42;18.30;88.60
47338;DHT22;33069;51.970;5.892;2023-07-31T12:57:28;18.20;88.80
47338;DHT22;33069;51.970;5.892;2023-07-31T13:00:14;18.20;89.00
47338;DHT22;33069;51.970;5.892;2023-07-31T13:03:01;18.20;89.00
47338;DHT22;33069;51.970;5.892;2023-07-31T13:05:47;18.30;89.00
47338;DHT22;33069;51.970;5.892;2023-07-31T13:08:33;18.30;88.90
47338;DHT22;33069;51.970;5.892;2023-07-31T13:11:19;18.50;88.90
47338;DHT22;33069;51.970;5.892;2023-07-31T13:14:05;18.60;88.70
47338;DHT22;33069;51.970;5.892;2023-07-31T13:16:51;18.60;88.30
47338;DHT22;33069;51.970;5.892;2023-07-31T13:19:37;18.80;87.90
47338;DHT22;33069;51.970;5.892;2023-07-31T13:22:23;18.80;87.30
47338;DHT22;33069;51.970;5.892;2023-07-31T13:25:09;18.80;87.00
47338;DHT22;33069;51.970;5.892;2023-07-31T13:27:55;18.80;86.90
47338;DHT22;33069;51.970;5.892;2023-07-31T13:30:41;18.80;87.00
47338;DHT22;33069;51.970;5.892;2023-07-31T13:33:27;18.90;86.50
47338;DHT22;33069;51.970;5.892;2023-07-31T13:36:13;19.20;86.50
47338;DHT22;33069;51.970;5.892;2023-07-31T13:39:00;19.20;85.70
47338;DHT22;33069;51.970;5.892;2023-07-31T13:41:46;19.10;85.60
47338;DHT22;33069;51.970;5.892;2023-07-31T13:44:32;19.10;85.50
47338;DHT22;33069;51.970;5.892;2023-07-31T13:47:18;19.20;85.30
47338;DHT22;33069;51.970;5.892;2023-07-31T13:50:04;19.10;85.30
47338;DHT22;33069;51.970;5.892;2023-07-31T13:52:51;18.90;85.80
47338;DHT22;33069;51.970;5.892;2023-07-31T13:55:37;19.00;86.20
47338;DHT22;33069;51.970;5.892;2023-07-31T13:58:23;18.90;86.30
47338;DHT22;33069;51.970;5.892;2023-07-31T14:01:09;19.00;86.40
47338;DHT22;33069;51.970;5.892;2023-07-31T14:03:55;19.00;86.50
47338;DHT22;33069;51.970;5.892;2023-07-31T14:06:41;19.10;86.30
47338;DHT22;33069;51.970;5.892;2023-07-31T14:09:27;19.10;86.10
47338;DHT22;33069;51.970;5.892;2023-07-31T14:12:14;18.90;86.10
47338;DHT22;33069;51.970;5.892;2023-07-31T14:15:00;19.00;86.30
47338;DHT22;33069;51.970;5.892;2023-07-31T14:17:46;18.90;86.30
47338;DHT22;33069;51.970;5.892;2023-07-31T14:20:32;18.90;86.50
47338;DHT22;33069;51.970;5.892;2023-07-31T14:23:18;18.80;86.60
47338;DHT22;33069;51.970;5.892;2023-07-31T14:26:05;18.70;86.60
47338;DHT22;33069;51.970;5.892;2023-07-31T14:28:51;18.70;87.00
47338;DHT22;33069;51.970;5.892;2023-07-31T14:31:37;18.70;87.20
47338;DHT22;33069;51.970;5.892;2023-07-31T14:34:23;18.70;87.30
47338;DHT22;33069;51.970;5.892;2023-07-31T14:37:09;18.70;87.30
47338;DHT22;33069;51.970;5.892;2023-07-31T14:39:55;18.80;87.40
47338;DHT22;33069;51.970;5.892;2023-07-31T14:42:41;18.80;87.40
47338;DHT22;33069;51.970;5.892;2023-07-31T14:45:27;18.70;87.50
47338;DHT22;33069;51.970;5.892;2023-07-31T14:48:13;18.50;87.60
47338;DHT22;33069;51.970;5.892;2023-07-31T14:51:00;18.50;88.10
47338;DHT22;33069;51.970;5.892;2023-07-31T14:53:46;18.50;88.50
47338;DHT22;33069;51.970;5.892;2023-07-31T14:56:33;18.30;88.60
47338;DHT22;33069;51.970;5.892;2023-07-31T14:59:18;18.40;88.70
47338;DHT22;33069;51.970;5.892;2023-07-31T15:02:05;18.40;88.80
47338;DHT22;33069;51.970;5.892;2023-07-31T15:04:51;18.40;88.90
47338;DHT22;33069;51.970;5.892;2023-07-31T15:07:37;18.40;88.90
47338;DHT22;33069;51.970;5.892;2023-07-31T15:10:23;18.50;89.00
47338;DHT22;33069;51.970;5.892;2023-07-31T15:13:09;18.50;88.80
47338;DHT22;33069;51.970;5.892;2023-07-31T15:15:55;18.40;88.80
47338;DHT22;33069;51.970;5.892;2023-07-31T15:18:42;18.50;88.80
47338;DHT22;33069;51.970;5.892;2023-07-31T15:21:28;18.50;88.70
47338;DHT22;33069;51.970;5.892;2023-07-31T15:24:14;18.50;88.70
47338;DHT22;33069;51.970;5.892;2023-07-31T15:26:59;18.50;88.50
47338;DHT22;33069;51.970;5.892;2023-07-31T15:29:49;18.50;88.40
47338;DHT22;33069;51.970;5.892;2023-07-31T15:32:38;18.40;88.20
47338;DHT22;33069;51.970;5.892;2023-07-31T15:35:24;18.50;88.00
47338;DHT22;33069;51.970;5.892;2023-07-31T15:38:11;18.40;87.80
47338;DHT22;33069;51.970;5.892;2023-07-31T15:40:56;18.50;87.70
47338;DHT22;33069;51.970;5.892;2023-07-31T15:43:42;18.50;87.60
47338;DHT22;33069;51.970;5.892;2023-07-31T15:46:28;18.50;87.50
47338;DHT22;33069;51.970;5.892;2023-07-31T15:49:14;18.50;87.60
47338;DHT22;33069;51.970;5.892;2023-07-31T15:52:00;18.40;87.90
47338;DHT22;33069;51.970;5.892;2023-07-31T15:54:46;18.40;87.90
47338;DHT22;33069;51.970;5.892;2023-07-31T15:57:32;18.40;88.10
47338;DHT22;33069;51.970;5.892;2023-07-31T16:00:19;18.50;87.90
47338;DHT22;33069;51.970;5.892;2023-07-31T16:03:04;18.70;87.60
47338;DHT22;33069;51.970;5.892;2023-07-31T16:05:50;18.70;87.30
47338;DHT22;33069;51.970;5.892;2023-07-31T16:08:36;18.70;86.80
47338;DHT22;33069;51.970;5.892;2023-07-31T16:11:27;18.80;86.70
47338;DHT22;33069;51.970;5.892;2023-07-31T16:14:13;18.70;86.70
47338;DHT22;33069;51.970;5.892;2023-07-31T16:16:59;18.70;86.60
47338;DHT22;33069;51.970;5.892;2023-07-31T16:19:45;18.70;86.80
47338;DHT22;33069;51.970;5.892;2023-07-31T16:22:31;18.60;86.90
47338;DHT22;33069;51.970;5.892;2023-07-31T16:25:17;18.50;87.30
47338;DHT22;33069;51.970;5.892;2023-07-31T16:28:03;18.30;87.80
47338;DHT22;33069;51.970;5.892;2023-07-31T16:30:49;18.30;88.30
47338;DHT22;33069;51.970;5.892;2023-07-31T16:33:36;18.30;88.60
47338;DHT22;33069;51.970;5.892;2023-07-31T16:36:22;18.20;88.90
47338;DHT22;33069;51.970;5.892;2023-07-31T16:39:07;18.00;89.10
47338;DHT22;33069;51.970;5.892;2023-07-31T16:41:54;18.00;89.30
47338;DHT22;33069;51.970;5.892;2023-07-31T16:44:40;18.00;89.50
47338;DHT22;33069;51.970;5.892;2023-07-31T16:47:26;17.90;89.70
47338;DHT22;33069;51.970;5.892;2023-07-31T16:50:12;17.90;89.80
47338;DHT22;33069;51.970;5.892;2023-07-31T16:52:58;17.80;90.00
47338;DHT22;33069;51.970;5.892;2023-07-31T16:55:44;17.80;90.10
47338;DHT22;33069;51.970;5.892;2023-07-31T16:58:30;17.80;90.30
47338;DHT22;33069;51.970;5.892;2023-07-31T17:01:16;17.70;90.30
47338;DHT22;33069;51.970;5.892;2023-07-31T17:04:02;17.70;90.40
47338;DHT22;33069;51.970;5.892;2023-07-31T17:06:48;17.70;90.50
47338;DHT22;33069;51.970;5.892;2023-07-31T17:09:34;17.70;90.50
47338;DHT22;33069;51.970;5.892;2023-07-31T17:12:20;17.70;90.60
47338;DHT22;33069;51.970;5.892;2023-07-31T17:15:06;17.60;90.60
47338;DHT22;33069;51.970;5.892;2023-07-31T17:17:53;17.60;90.60
47338;DHT22;33069;51.970;5.892;2023-07-31T17:20:40;17.70;90.70
47338;DHT22;33069;51.970;5.892;2023-07-31T17:23:25;17.60;90.80
47338;DHT22;33069;51.970;5.892;2023-07-31T17:26:12;17.60;90.80
47338;DHT22;33069;51.970;5.892;2023-07-31T17:28:58;17.60;90.90
47338;DHT22;33069;51.970;5.892;2023-07-31T17:31:47;17.50;90.90
47338;DHT22;33069;51.970;5.892;2023-07-31T17:34:33;17.60;90.80
47338;DHT22;33069;51.970;5.892;2023-07-31T17:37:19;17.60;90.90
47338;DHT22;33069;51.970;5.892;2023-07-31T17:40:05;17.60;90.90
47338;DHT22;33069;51.970;5.892;2023-07-31T17:42:51;17.60;90.90
47338;DHT22;33069;51.970;5.892;2023-07-31T17:45:37;17.60;90.90